Anthony, Texas
Current Conditions -  °F | °C
As of 11:58 PM on Saturday 22 Nov 2014 (Local Time) from KBIF Reporting Station
Clear Clear  
Wind Chill: 13°   Ceiling: Unl
Heat Index: 13°   Visibility: 10mi
Dew Point: -8°   Wind: 20mph
Humidity: 22%   Direction: 280°W
Pressure: 29.88"   Gusts: 30mph
Location:  32°N, 106.61°W
Report Text: KBIF 230658Z AUTO 28017G26KT 10SM CLR 13/M08 A2988 RMK AO2 PK WND 28026/55 SLP075 T01341078 401900095 $
Loading
Personal Weather Stations






























Interactive Weather Map New forecast layout! Learn more

10-Day Weather Forecast

Advertisements
Track Severe Weather on mobile